This is the latest recevied weather packets stored in our database for station/object IZ2MHJ-3. If no packets are shown the sender has not sent any weather packets the latest 10 day(s).
| Time | Temp. | Humidity | Pressure | Rain* | Wind** | Luminosity | Snow |
|---|---|---|---|---|---|---|---|
| 1777831482 | 22.78° C | 35% | 1017.5 hPa | - | - | - | - |
| 1777830281 | 23.33° C | 34% | 1017.3 hPa | - | - | - | - |
| 1777829081 | 23.89° C | 33% | 1017.3 hPa | - | - | - | - |
| 1777827881 | 25° C | 32% | 1017.4 hPa | - | - | - | - |
| 1777826680 | 25.56° C | 30% | 1017.4 hPa | - | - | - | - |
| 1777825480 | 26.11° C | 28% | 1017.5 hPa | - | - | - | - |
| 1777824280 | 26.67° C | 28% | 1017.5 hPa | - | - | - | - |
| 1777823080 | 26.67° C | 30% | 1017.7 hPa | - | - | - | - |
| 1777821879 | 26.67° C | 28% | 1017.8 hPa | - | - | - | - |
| 1777820679 | 26.67° C | 29% | 1018 hPa | - | - | - | - |
| 1777819479 | 27.22° C | 27% | 1018.2 hPa | - | - | - | - |
| 1777818278 | 27.22° C | 27% | 1018.5 hPa | - | - | - | - |
| 1777817078 | 27.78° C | 26% | 1018.6 hPa | - | - | - | - |
| 1777815878 | 27.78° C | 25% | 1018.9 hPa | - | - | - | - |
| 1777814677 | 28.89° C | 25% | 1019 hPa | - | - | - | - |
| 1777813477 | 27.22° C | 27% | 1019.2 hPa | - | - | - | - |
| 1777812277 | 26.67° C | 28% | 1019.4 hPa | - | - | - | - |
| 1777811076 | 26.11° C | 27% | 1019.5 hPa | - | - | - | - |
| 1777809876 | 26.11° C | 29% | 1019.4 hPa | - | - | - | - |
| 1777808676 | 26.11° C | 32% | 1019.5 hPa | - | - | - | - |
| 1777807475 | 26.11° C | 32% | 1019.6 hPa | - | - | - | - |
| 1777806275 | 26.67° C | 31% | 1019.5 hPa | - | - | - | - |
| 1777805075 | 26.11° C | 31% | 1019.6 hPa | - | - | - | - |
| 1777803874 | 27.22° C | 30% | 1019.7 hPa | - | - | - | - |
| 1777802674 | 26.11° C | 33% | 1019.9 hPa | - | - | - | - |
* Rain since midnight (hover to see other rain measurements)
** Current wind speed in m/s (hover to see current wind gust speed)